Airfield :
LOGIN :

Register | Disclaimer

   EN    FR    IT 

 










Legend :    VFR   Marginal VFR   IFR   Intensive IFR   Very Intensive IFR
Visi :
Ceiling :
>= 8 km
>= 3000ft
5 to 8 km
1000 to 3000 ft
1500m to 5 km
500 to 1000 ft
800 to 1500m
200 to 500 ft
< 800m
< 200 ft
Symbols :   Thunderstorms  Fog  Heavy snow  Heavy precipitations  Wind > 20 kt
SIGMETs :     Misc.  Thunderstorms  Icing  Turbulence  Mountain Waves  Volcanic Ashes







- Airport Elevation : 459 ft
- IATA code : CER
- Download approach charts


LFRC - Cherbourg / Maupertus

CURRENT METAR :
  • 250600Z AUTO 07006KT CAVOK 15/12 Q1026 NOSIG

EXPIRED METARs :
  • 250530Z AUTO 07005KT CAVOK 14/12 Q1026 NOSIG
  • 250500Z AUTO 07005KT CAVOK 13/11 Q1025
  • 250430Z AUTO 06006KT CAVOK 12/11 Q1025
  • 250400Z AUTO 06006KT CAVOK 12/11 Q1025
  • 250330Z AUTO 06007KT CAVOK 12/11 Q1025

TAF TAF LFRC
Valid from the 25 at 06:00 until the 25 at 15:00 UTC


250500Z 2506/2515 06005KT CAVOK
BECMG 2506/2508 08010KT
No reported NOTAMs for that airfield.



MET'MAP, your aeronautical weather chart ! - Copyright ORBIFLY December 2007 - Disclaimer

ORBIFLY MET'MAP TEAM :

Programming & Development : Alexandra Zaïnal
Concept & Development : Baudouin d'Aumeries
Co-Development & Prog : Marc-Olivier Méhu
Technical & hardware support : Manuel Goepfert

Contact : metmap@orbifly.com




SOURCES & CREDITS :

   NOAA